createdAt,value
2022-09-02T00:02:25.284Z,17.00
2022-09-02T00:04:52.751Z,16.90
2022-09-02T00:07:20.247Z,17.00
2022-09-02T00:09:47.629Z,17.00
2022-09-02T00:12:15.552Z,17.00
2022-09-02T00:14:43.102Z,17.00
2022-09-02T00:17:10.540Z,17.00
2022-09-02T00:19:38.519Z,17.00
2022-09-02T00:22:06.057Z,17.00
2022-09-02T00:24:33.649Z,16.90
2022-09-02T00:27:01.568Z,16.90
2022-09-02T00:29:30.973Z,16.90
2022-09-02T00:31:59.032Z,16.90
2022-09-02T00:34:26.675Z,16.90
2022-09-02T00:36:54.081Z,16.90
2022-09-02T00:39:21.557Z,16.90
2022-09-02T00:41:48.980Z,16.90
2022-09-02T00:44:19.062Z,16.90
2022-09-02T00:46:47.716Z,16.90
2022-09-02T00:49:26.452Z,16.90
2022-09-02T00:52:00.383Z,16.90
2022-09-02T00:54:31.365Z,16.90
2022-09-02T00:57:01.344Z,16.90
2022-09-02T01:00:10.016Z,16.90
2022-09-02T01:02:40.878Z,16.90
2022-09-02T01:05:11.151Z,16.80
2022-09-02T01:07:39.982Z,16.80
2022-09-02T01:10:10.971Z,17.00
2022-09-02T01:12:38.287Z,16.90
2022-09-02T01:15:09.227Z,16.80
2022-09-02T01:17:39.790Z,16.80
2022-09-02T01:20:12.120Z,16.90
2022-09-02T01:22:42.167Z,16.90
2022-09-02T01:25:14.122Z,16.90
2022-09-02T01:27:42.083Z,16.80
2022-09-02T01:30:13.424Z,16.80
2022-09-02T01:32:40.933Z,16.80
2022-09-02T01:35:08.676Z,16.80
2022-09-02T01:37:38.714Z,16.80
2022-09-02T01:40:08.072Z,16.80
2022-09-02T01:42:35.779Z,16.80
2022-09-02T01:45:04.916Z,16.80
2022-09-02T01:47:32.931Z,16.70
2022-09-02T01:50:00.565Z,16.70
2022-09-02T01:52:29.317Z,16.70
2022-09-02T01:54:58.029Z,16.60
2022-09-02T01:57:25.482Z,16.60
2022-09-02T01:59:54.539Z,16.60
2022-09-02T02:02:22.875Z,16.60
2022-09-02T02:04:51.006Z,16.60
2022-09-02T02:07:20.396Z,16.60
2022-09-02T02:09:48.526Z,16.50
2022-09-02T02:12:16.976Z,16.50
2022-09-02T02:14:44.762Z,16.60
2022-09-02T02:17:12.879Z,16.50
2022-09-02T02:19:40.775Z,16.50
2022-09-02T02:22:08.289Z,16.50
2022-09-02T02:24:35.816Z,16.50
2022-09-02T02:27:03.920Z,16.50
2022-09-02T02:29:31.399Z,16.50
2022-09-02T02:31:58.822Z,16.50
2022-09-02T02:34:26.281Z,16.50
2022-09-02T02:36:53.753Z,16.50
2022-09-02T02:39:21.321Z,16.50
2022-09-02T02:41:48.773Z,16.50
2022-09-02T02:44:16.340Z,16.50
2022-09-02T02:46:44.287Z,16.50
2022-09-02T02:49:12.004Z,16.50
2022-09-02T02:51:39.403Z,16.50
2022-09-02T02:54:06.861Z,16.50
2022-09-02T02:56:34.905Z,16.60
2022-09-02T02:59:03.560Z,16.50
2022-09-02T03:01:32.356Z,16.50
2022-09-02T03:04:00.056Z,16.50
2022-09-02T03:06:27.471Z,16.60
2022-09-02T03:08:54.874Z,16.60
2022-09-02T03:11:22.670Z,16.60
2022-09-02T03:13:51.164Z,16.60
2022-09-02T03:16:19.981Z,16.60
2022-09-02T03:18:49.295Z,16.60
2022-09-02T03:21:18.176Z,16.60
2022-09-02T03:23:46.698Z,16.60
2022-09-02T03:26:20.451Z,16.60
2022-09-02T03:28:49.417Z,16.60
2022-09-02T03:31:20.356Z,16.60
2022-09-02T03:33:47.971Z,16.70
2022-09-02T03:36:23.829Z,16.60
2022-09-02T03:38:51.915Z,16.60
2022-09-02T03:41:19.462Z,16.60
2022-09-02T03:43:47.254Z,16.60
2022-09-02T03:46:14.799Z,16.70
2022-09-02T03:48:42.551Z,16.70
2022-09-02T03:51:10.065Z,16.70
2022-09-02T03:53:39.122Z,16.70
2022-09-02T03:56:15.048Z,16.70
2022-09-02T03:58:45.495Z,16.70
2022-09-02T04:01:18.859Z,16.70
2022-09-02T04:03:47.067Z,16.70
2022-09-02T04:06:17.323Z,16.70
2022-09-02T04:08:45.116Z,16.70
2022-09-02T04:11:19.027Z,16.70
2022-09-02T04:13:48.873Z,16.70
2022-09-02T04:16:19.347Z,16.70
2022-09-02T04:18:47.568Z,16.70
2022-09-02T04:21:16.059Z,16.70
2022-09-02T04:23:43.582Z,16.70
2022-09-02T04:26:13.489Z,16.70
2022-09-02T04:28:41.500Z,16.70
2022-09-02T04:31:11.869Z,16.70
2022-09-02T04:33:40.319Z,16.70
2022-09-02T04:36:10.522Z,16.70
2022-09-02T04:38:42.342Z,16.70
2022-09-02T04:41:21.611Z,16.70
2022-09-02T04:43:55.645Z,16.70
2022-09-02T04:46:23.020Z,16.70
2022-09-02T04:49:02.032Z,16.70
2022-09-02T04:51:29.828Z,16.70
2022-09-02T04:53:57.493Z,16.70
2022-09-02T04:56:27.808Z,16.70
2022-09-02T04:58:55.911Z,16.70
2022-09-02T05:01:26.812Z,16.70
2022-09-02T05:03:54.765Z,16.70
2022-09-02T05:06:27.246Z,16.80
2022-09-02T05:08:56.365Z,16.80
2022-09-02T05:11:28.521Z,16.80
2022-09-02T05:13:59.418Z,16.80
2022-09-02T05:16:30.391Z,16.80
2022-09-02T05:18:58.182Z,16.80
2022-09-02T05:21:26.021Z,16.80
2022-09-02T05:23:54.739Z,16.80
2022-09-02T05:26:22.743Z,16.80
2022-09-02T05:28:51.100Z,16.80
2022-09-02T05:31:20.599Z,16.80
2022-09-02T05:33:48.809Z,16.80
2022-09-02T05:36:20.456Z,16.80
2022-09-02T05:38:49.059Z,16.80
2022-09-02T05:41:19.817Z,16.70
2022-09-02T05:43:48.660Z,16.80
2022-09-02T05:46:18.246Z,16.80
2022-09-02T05:49:05.337Z,16.80
2022-09-02T05:51:37.441Z,16.80
2022-09-02T05:54:04.899Z,16.80
2022-09-02T05:56:32.317Z,16.80
2022-09-02T05:59:01.710Z,16.80
2022-09-02T06:01:30.178Z,16.80
2022-09-02T06:03:59.353Z,16.80
2022-09-02T06:06:26.728Z,16.80
2022-09-02T06:08:54.239Z,16.80
2022-09-02T06:11:22.187Z,16.80
2022-09-02T06:13:51.782Z,16.80
2022-09-02T06:16:21.352Z,16.80
2022-09-02T06:18:50.563Z,16.80
2022-09-02T06:21:20.708Z,16.80
2022-09-02T06:23:48.510Z,16.80
2022-09-02T06:26:17.065Z,16.80
2022-09-02T06:28:44.908Z,16.80
2022-09-02T06:31:15.972Z,16.80
2022-09-02T06:33:45.122Z,16.80
2022-09-02T06:36:17.932Z,16.90
2022-09-02T06:38:47.624Z,16.90
2022-09-02T06:41:18.067Z,16.90
2022-09-02T06:43:46.147Z,16.90
2022-09-02T06:46:23.122Z,16.90
2022-09-02T06:48:51.243Z,17.00
2022-09-02T06:51:21.943Z,17.00
2022-09-02T06:53:49.640Z,17.10
2022-09-02T06:56:17.351Z,17.10
2022-09-02T06:58:45.024Z,17.20
2022-09-02T07:01:25.723Z,17.20
2022-09-02T07:04:12.057Z,17.20
2022-09-02T07:06:42.296Z,17.20
2022-09-02T07:09:11.583Z,17.30
2022-09-02T07:11:39.406Z,17.30
2022-09-02T07:14:06.921Z,17.30
2022-09-02T07:16:42.291Z,17.30
2022-09-02T07:19:15.061Z,17.40
2022-09-02T07:21:43.631Z,17.40
2022-09-02T07:24:14.089Z,17.40
2022-09-02T07:26:42.706Z,17.40
2022-09-02T07:29:10.374Z,17.40
2022-09-02T07:31:39.792Z,17.50
2022-09-02T07:34:10.044Z,17.50
2022-09-02T07:36:37.989Z,17.60
2022-09-02T07:39:08.034Z,17.60
2022-09-02T07:41:36.575Z,17.70
2022-09-02T07:44:05.923Z,17.80
2022-09-02T07:46:34.055Z,17.80
2022-09-02T07:49:04.142Z,17.90
2022-09-02T07:51:33.328Z,18.00
2022-09-02T07:54:02.007Z,18.00
2022-09-02T07:56:29.533Z,18.10
2022-09-02T07:58:56.960Z,18.10
2022-09-02T08:01:24.891Z,18.10
2022-09-02T08:03:53.757Z,18.10
2022-09-02T08:06:33.680Z,18.20
2022-09-02T08:09:04.970Z,18.20
2022-09-02T08:11:34.981Z,18.20
2022-09-02T08:14:02.460Z,18.20
2022-09-02T08:16:30.120Z,18.20
2022-09-02T08:18:58.397Z,18.30
2022-09-02T08:21:25.813Z,18.30
2022-09-02T08:23:53.218Z,18.40
2022-09-02T08:26:21.441Z,18.40
2022-09-02T08:28:48.907Z,18.40
2022-09-02T08:31:16.620Z,18.50
2022-09-02T08:33:44.903Z,18.50
2022-09-02T08:36:15.019Z,18.60
2022-09-02T08:38:43.968Z,18.60
2022-09-02T08:41:25.319Z,18.80
2022-09-02T08:43:57.188Z,18.80
2022-09-02T08:46:27.348Z,18.80
2022-09-02T08:49:08.415Z,18.80
2022-09-02T08:51:56.788Z,18.90
2022-09-02T08:54:40.567Z,18.90
2022-09-02T08:57:10.509Z,19.00
2022-09-02T09:02:24.570Z,19.00
2022-09-02T09:05:20.277Z,19.00
2022-09-02T09:08:34.335Z,19.10
2022-09-02T09:11:38.665Z,19.20
2022-09-02T09:14:13.698Z,19.20
2022-09-02T09:16:58.151Z,19.20
2022-09-02T09:19:38.490Z,19.20
2022-09-02T09:22:05.962Z,19.20
2022-09-02T09:24:41.463Z,19.30
2022-09-02T09:27:17.457Z,19.40
2022-09-02T09:29:45.065Z,19.40
2022-09-02T09:32:47.822Z,19.50
2022-09-02T09:35:17.430Z,19.50
2022-09-02T09:37:52.793Z,19.70
2022-09-02T09:40:23.214Z,19.80
2022-09-02T09:42:56.892Z,19.80
2022-09-02T09:45:41.851Z,19.80
2022-09-02T09:48:29.931Z,20.00
2022-09-02T09:50:57.352Z,20.10
2022-09-02T09:53:29.989Z,20.10
2022-09-02T09:56:17.780Z,20.10
2022-09-02T09:58:47.584Z,20.20
2022-09-02T10:01:33.130Z,20.20
2022-09-02T10:04:02.465Z,20.30
2022-09-02T10:06:30.780Z,20.50
2022-09-02T10:09:03.424Z,20.60
2022-09-02T10:11:34.054Z,20.60
2022-09-02T10:14:04.163Z,20.70
2022-09-02T10:16:57.888Z,20.90
2022-09-02T10:19:47.052Z,21.00
2022-09-02T10:22:20.424Z,21.20
2022-09-02T10:25:42.650Z,21.30
2022-09-02T10:28:26.457Z,21.30
2022-09-02T10:30:59.981Z,21.40
2022-09-02T10:33:27.325Z,21.50
2022-09-02T10:36:17.185Z,21.60
2022-09-02T10:38:50.826Z,21.70
2022-09-02T10:41:38.042Z,21.80
2022-09-02T10:44:24.282Z,21.80
2022-09-02T10:47:01.366Z,21.80
2022-09-02T10:49:37.796Z,21.90
2022-09-02T10:52:42.539Z,21.80
2022-09-02T10:55:39.789Z,21.90
2022-09-02T10:58:30.004Z,21.90
2022-09-02T11:00:57.718Z,22.00
2022-09-02T11:03:38.738Z,22.00
2022-09-02T11:06:20.068Z,22.00
2022-09-02T11:08:49.771Z,22.00
2022-09-02T11:11:22.561Z,22.00
2022-09-02T11:13:52.676Z,22.00
2022-09-02T11:16:42.975Z,22.10
2022-09-02T11:19:19.469Z,22.20
2022-09-02T11:22:28.735Z,22.40
2022-09-02T11:25:00.638Z,22.70
2022-09-02T11:27:52.506Z,22.90
2022-09-02T11:30:23.694Z,22.90
2022-09-02T11:33:13.050Z,23.00
2022-09-02T11:35:40.842Z,23.60
2022-09-02T11:38:20.142Z,24.00
2022-09-02T11:41:38.074Z,24.60
2022-09-02T11:44:43.266Z,25.40
2022-09-02T11:47:29.288Z,25.80
2022-09-02T11:50:19.432Z,25.80
2022-09-02T11:53:13.771Z,25.70
2022-09-02T11:55:47.044Z,25.40
2022-09-02T11:58:37.780Z,24.60
2022-09-02T12:01:24.953Z,24.30
2022-09-02T12:04:59.416Z,24.10
2022-09-02T12:07:12.987Z,23.90
2022-09-02T12:09:55.475Z,24.10
2022-09-02T12:12:38.382Z,24.30
2022-09-02T12:15:06.400Z,24.80
2022-09-02T12:17:37.851Z,25.10
2022-09-02T12:20:08.312Z,25.70
2022-09-02T12:22:40.598Z,25.80
2022-09-02T12:25:28.507Z,25.70
2022-09-02T12:28:21.457Z,25.50
2022-09-02T12:31:08.800Z,25.70
2022-09-02T12:33:39.406Z,26.10
2022-09-02T12:36:08.006Z,26.20
2022-09-02T12:38:38.809Z,26.10
2022-09-02T12:41:13.295Z,26.00
2022-09-02T12:44:02.148Z,26.00
2022-09-02T12:46:48.362Z,26.10
2022-09-02T12:49:37.847Z,26.30
2022-09-02T12:52:10.592Z,26.20
2022-09-02T12:54:49.463Z,25.90
2022-09-02T12:57:18.641Z,25.90
2022-09-02T12:59:47.559Z,26.30
2022-09-02T13:02:52.270Z,26.50
2022-09-02T13:05:38.212Z,26.70
2022-09-02T13:08:32.455Z,26.90
2022-09-02T13:11:21.348Z,26.20
2022-09-02T13:13:57.296Z,26.10
2022-09-02T13:16:54.103Z,26.00
2022-09-02T13:19:49.312Z,26.20
2022-09-02T13:22:24.022Z,25.90
2022-09-02T13:25:18.521Z,25.50
2022-09-02T13:28:18.723Z,25.20
2022-09-02T13:31:04.710Z,24.90
2022-09-02T13:33:32.816Z,25.20
2022-09-02T13:36:00.318Z,25.30
2022-09-02T13:38:29.783Z,25.60
2022-09-02T13:40:57.365Z,25.70
2022-09-02T13:43:27.147Z,25.60
2022-09-02T13:46:02.867Z,25.50
2022-09-02T13:48:33.967Z,25.30
2022-09-02T13:51:13.369Z,25.40
2022-09-02T13:53:59.444Z,25.40
2022-09-02T13:56:32.915Z,25.30
2022-09-02T13:59:00.296Z,25.20
2022-09-02T14:01:31.387Z,25.10
2022-09-02T14:04:02.924Z,25.10
2022-09-02T14:06:36.567Z,24.90
2022-09-02T14:09:10.440Z,24.80
2022-09-02T14:11:44.186Z,24.70
2022-09-02T14:14:17.298Z,24.60
2022-09-02T14:16:44.933Z,24.50
2022-09-02T14:19:23.499Z,24.40
2022-09-02T14:21:56.292Z,24.30
2022-09-02T14:24:37.157Z,24.20
2022-09-02T14:27:13.663Z,24.10
2022-09-02T14:29:44.712Z,24.10
2022-09-02T14:32:21.428Z,24.00
2022-09-02T14:35:08.351Z,24.00
2022-09-02T14:37:55.890Z,23.90
2022-09-02T14:40:40.528Z,23.90
2022-09-02T14:43:16.310Z,23.90
2022-09-02T14:45:47.789Z,23.90
2022-09-02T14:48:26.900Z,23.80
2022-09-02T14:51:03.337Z,23.70
2022-09-02T14:53:31.867Z,23.70
2022-09-02T14:56:00.078Z,23.70
2022-09-02T14:58:28.432Z,23.70
2022-09-02T15:00:59.510Z,23.60
2022-09-02T15:03:28.390Z,23.60
2022-09-02T15:05:56.224Z,23.50
2022-09-02T15:08:23.938Z,23.40
2022-09-02T15:10:54.302Z,23.30
2022-09-02T15:13:32.548Z,23.20
2022-09-02T15:16:00.744Z,23.20
2022-09-02T15:18:28.260Z,23.10
2022-09-02T15:20:55.728Z,23.00
2022-09-02T15:23:24.141Z,22.90
2022-09-02T15:25:53.904Z,22.90
2022-09-02T15:28:21.322Z,22.80
2022-09-02T15:30:48.797Z,22.80
2022-09-02T15:33:17.710Z,22.70
2022-09-02T15:35:47.394Z,22.70
2022-09-02T15:38:14.927Z,22.70
2022-09-02T15:40:42.496Z,22.70
2022-09-02T15:43:09.876Z,22.70
2022-09-02T15:45:45.761Z,22.60
2022-09-02T15:48:13.452Z,22.60
2022-09-02T15:50:40.865Z,22.60
2022-09-02T15:53:08.366Z,22.60
2022-09-02T15:55:35.806Z,22.60
2022-09-02T15:58:03.169Z,22.60
2022-09-02T16:00:32.011Z,22.60
2022-09-02T16:03:00.904Z,22.60
2022-09-02T16:05:28.289Z,22.50
2022-09-02T16:07:55.927Z,22.60
2022-09-02T16:10:23.368Z,22.70
2022-09-02T16:12:51.083Z,22.60
2022-09-02T16:15:18.805Z,22.60
2022-09-02T16:17:46.401Z,22.50
2022-09-02T16:20:15.320Z,22.60
2022-09-02T16:22:45.449Z,22.60
2022-09-02T16:25:12.854Z,22.60
2022-09-02T16:27:52.310Z,22.60
2022-09-02T16:30:20.749Z,22.50
2022-09-02T16:32:50.686Z,22.50
2022-09-02T16:35:18.220Z,22.50
2022-09-02T16:37:45.626Z,22.40
2022-09-02T16:40:21.715Z,22.40
2022-09-02T16:42:49.755Z,22.30
2022-09-02T16:45:17.270Z,22.20
2022-09-02T16:47:44.727Z,22.20
2022-09-02T16:50:12.695Z,22.10
2022-09-02T16:52:41.127Z,22.10
2022-09-02T16:55:08.733Z,22.10
2022-09-02T16:57:36.145Z,22.10
2022-09-02T17:00:04.450Z,22.10
2022-09-02T17:02:31.970Z,22.10
2022-09-02T17:04:59.464Z,22.20
2022-09-02T17:07:26.893Z,22.10
2022-09-02T17:09:54.276Z,22.20
2022-09-02T17:12:21.667Z,22.10
2022-09-02T17:14:49.149Z,22.10
2022-09-02T17:17:17.237Z,22.10
2022-09-02T17:19:44.795Z,22.10
2022-09-02T17:22:12.253Z,22.10
2022-09-02T17:24:41.994Z,22.10
2022-09-02T17:27:09.608Z,22.10
2022-09-02T17:29:52.412Z,22.00
2022-09-02T17:32:20.557Z,22.00
2022-09-02T17:34:49.639Z,22.00
2022-09-02T17:37:17.226Z,21.90
2022-09-02T17:39:46.656Z,21.90
2022-09-02T17:42:15.286Z,21.90
2022-09-02T17:44:42.934Z,21.90
2022-09-02T17:47:16.574Z,21.90
2022-09-02T17:49:44.655Z,21.90
2022-09-02T17:52:23.863Z,21.90
2022-09-02T17:54:54.124Z,21.80
2022-09-02T17:57:43.181Z,21.80
2022-09-02T18:00:13.862Z,21.80
2022-09-02T18:03:13.395Z,21.80
2022-09-02T18:05:52.090Z,21.70
2022-09-02T18:08:33.733Z,21.70
2022-09-02T18:11:04.538Z,21.70
2022-09-02T18:13:34.234Z,21.60
2022-09-02T18:16:25.735Z,21.60
2022-09-02T18:19:16.317Z,21.60
2022-09-02T18:22:14.604Z,21.60
2022-09-02T18:25:24.627Z,21.50
2022-09-02T18:28:27.034Z,21.50
2022-09-02T18:31:22.567Z,21.50
2022-09-02T18:34:32.349Z,21.40
2022-09-02T18:37:21.455Z,21.40
2022-09-02T18:39:57.362Z,21.40
2022-09-02T18:42:59.067Z,21.30
2022-09-02T18:45:35.630Z,21.30
2022-09-02T18:48:10.260Z,21.20
2022-09-02T18:50:50.795Z,21.20
2022-09-02T18:53:28.684Z,21.20
2022-09-02T18:55:58.011Z,21.20
2022-09-02T18:58:42.253Z,21.10
2022-09-02T19:01:24.499Z,21.10
2022-09-02T19:03:52.354Z,21.10
2022-09-02T19:06:22.671Z,21.10
2022-09-02T19:09:00.993Z,21.00
2022-09-02T19:11:33.285Z,21.00
2022-09-02T19:14:12.565Z,21.00
2022-09-02T19:16:40.164Z,21.10
2022-09-02T19:19:08.026Z,21.00
2022-09-02T19:21:45.683Z,21.00
2022-09-02T19:24:44.915Z,21.20
2022-09-02T19:27:25.213Z,21.10
2022-09-02T19:29:58.265Z,21.10
2022-09-02T19:32:33.415Z,21.10
2022-09-02T19:35:04.729Z,21.00
2022-09-02T19:37:32.140Z,21.00
2022-09-02T19:40:04.967Z,21.00
2022-09-02T19:42:33.281Z,20.90
2022-09-02T19:45:00.713Z,20.90
2022-09-02T19:50:21.281Z,20.80
2022-09-02T19:52:49.787Z,20.80
2022-09-02T19:55:18.801Z,20.70
2022-09-02T19:57:46.418Z,20.70
2022-09-02T20:00:15.007Z,20.70
2022-09-02T20:02:43.055Z,20.70
2022-09-02T20:05:12.909Z,20.60
2022-09-02T20:07:40.970Z,20.60
2022-09-02T20:10:09.054Z,20.60
2022-09-02T20:12:36.879Z,20.60
2022-09-02T20:15:06.761Z,20.60
2022-09-02T20:17:34.681Z,20.60
2022-09-02T20:20:12.033Z,20.50
2022-09-02T20:22:39.435Z,20.50
2022-09-02T20:25:07.139Z,20.50
2022-09-02T20:27:47.438Z,20.50
2022-09-02T20:30:17.359Z,20.50
2022-09-02T20:33:01.974Z,20.50
2022-09-02T20:36:08.698Z,20.50
2022-09-02T20:38:59.409Z,20.50
2022-09-02T20:41:55.223Z,20.40
2022-09-02T20:44:29.935Z,20.50
2022-09-02T20:47:16.364Z,20.40
2022-09-02T20:49:55.647Z,20.40
2022-09-02T20:52:53.319Z,20.40
2022-09-02T20:55:29.942Z,20.40
2022-09-02T20:58:22.787Z,20.40
2022-09-02T21:01:16.286Z,20.40
2022-09-02T21:04:05.497Z,20.40
2022-09-02T21:06:37.766Z,20.40
2022-09-02T21:09:42.655Z,20.40
2022-09-02T21:12:22.036Z,20.40
2022-09-02T21:14:56.033Z,20.30
2022-09-02T21:17:51.236Z,20.30
2022-09-02T21:20:29.763Z,20.30
2022-09-02T21:23:01.179Z,20.30
2022-09-02T21:25:36.093Z,20.30
2022-09-02T21:28:15.427Z,20.30
2022-09-02T21:30:48.452Z,20.30
2022-09-02T21:33:17.424Z,20.30
2022-09-02T21:35:50.138Z,20.30
2022-09-02T21:38:24.613Z,20.30
2022-09-02T21:41:28.942Z,20.30
2022-09-02T21:44:05.195Z,20.30
2022-09-02T21:46:58.321Z,20.30
2022-09-02T21:49:40.836Z,20.20
2022-09-02T21:52:45.629Z,20.20
2022-09-02T21:55:50.786Z,20.20
2022-09-02T21:58:59.260Z,20.20
2022-09-02T22:01:44.629Z,20.20
2022-09-02T22:04:41.391Z,20.10
2022-09-02T22:07:18.979Z,20.10
2022-09-02T22:09:58.800Z,20.10
2022-09-02T22:12:26.393Z,20.10
2022-09-02T22:15:01.947Z,20.00
2022-09-02T22:17:56.168Z,20.00
2022-09-02T22:20:31.450Z,20.00
2022-09-02T22:23:05.188Z,19.90
2022-09-02T22:25:38.169Z,19.90
2022-09-02T22:28:14.490Z,19.90
2022-09-02T22:30:47.793Z,19.90
2022-09-02T22:33:21.055Z,19.90
2022-09-02T22:35:55.035Z,19.90
2022-09-02T22:38:52.147Z,19.90
2022-09-02T22:41:43.743Z,19.90
2022-09-02T22:44:20.450Z,19.90
2022-09-02T22:47:10.600Z,19.90
2022-09-02T22:50:09.102Z,19.90
2022-09-02T22:52:49.439Z,19.90
2022-09-02T22:55:34.452Z,19.90
2022-09-02T22:58:11.092Z,19.80
2022-09-02T23:00:47.181Z,19.70
2022-09-02T23:03:25.158Z,19.70
2022-09-02T23:06:19.895Z,19.60
2022-09-02T23:08:49.010Z,19.50
2022-09-02T23:11:28.367Z,19.50
2022-09-02T23:14:11.136Z,19.40
2022-09-02T23:16:45.218Z,19.40
2022-09-02T23:19:44.386Z,19.30
2022-09-02T23:22:35.102Z,19.30
2022-09-02T23:25:41.897Z,19.20
2022-09-02T23:28:15.150Z,19.20
2022-09-02T23:31:01.172Z,19.20
2022-09-02T23:33:38.294Z,19.10
2022-09-02T23:36:36.067Z,19.10
2022-09-02T23:39:16.198Z,19.10
2022-09-02T23:41:47.369Z,19.10
2022-09-02T23:44:14.936Z,19.00
2022-09-02T23:47:28.933Z,19.00
2022-09-02T23:50:08.328Z,19.00
2022-09-02T23:52:56.340Z,18.90
2022-09-02T23:55:51.134Z,18.90
2022-09-02T23:58:36.678Z,18.90
